sensor_id;sensor_type;location;lat;lon;timestamp;temperature;humidity
18388;DHT22;9320;50.256;19.026;2023-04-07T00:00:12;3.50;99.90
18388;DHT22;9320;50.256;19.026;2023-04-07T00:02:43;3.50;99.90
18388;DHT22;9320;50.256;19.026;2023-04-07T00:05:11;3.70;99.90
18388;DHT22;9320;50.256;19.026;2023-04-07T00:07:39;3.80;99.90
18388;DHT22;9320;50.256;19.026;2023-04-07T00:10:18;3.80;99.90
18388;DHT22;9320;50.256;19.026;2023-04-07T00:12:46;3.70;99.90
18388;DHT22;9320;50.256;19.026;2023-04-07T00:15:14;3.70;99.90
18388;DHT22;9320;50.256;19.026;2023-04-07T00:17:43;3.70;99.90
18388;DHT22;9320;50.256;19.026;2023-04-07T00:20:12;3.80;99.90
18388;DHT22;9320;50.256;19.026;2023-04-07T00:22:40;3.80;99.90
18388;DHT22;9320;50.256;19.026;2023-04-07T00:25:08;3.70;99.90
18388;DHT22;9320;50.256;19.026;2023-04-07T00:27:36;3.70;99.90
18388;DHT22;9320;50.256;19.026;2023-04-07T00:30:05;3.70;99.90
18388;DHT22;9320;50.256;19.026;2023-04-07T00:32:34;3.70;99.90
18388;DHT22;9320;50.256;19.026;2023-04-07T00:35:04;3.60;99.90
18388;DHT22;9320;50.256;19.026;2023-04-07T00:37:32;3.60;99.90
18388;DHT22;9320;50.256;19.026;2023-04-07T00:40:00;3.50;99.90
18388;DHT22;9320;50.256;19.026;2023-04-07T00:42:29;3.50;99.90
18388;DHT22;9320;50.256;19.026;2023-04-07T00:44:57;3.60;99.90
18388;DHT22;9320;50.256;19.026;2023-04-07T00:47:26;3.60;99.90
18388;DHT22;9320;50.256;19.026;2023-04-07T00:49:54;3.60;99.90
18388;DHT22;9320;50.256;19.026;2023-04-07T00:52:23;3.40;99.90
18388;DHT22;9320;50.256;19.026;2023-04-07T00:54:55;3.40;99.90
18388;DHT22;9320;50.256;19.026;2023-04-07T00:57:24;3.30;99.90
18388;DHT22;9320;50.256;19.026;2023-04-07T00:59:53;3.40;99.90
18388;DHT22;9320;50.256;19.026;2023-04-07T01:02:28;3.30;99.90
18388;DHT22;9320;50.256;19.026;2023-04-07T01:05:06;3.30;99.90
18388;DHT22;9320;50.256;19.026;2023-04-07T01:07:47;3.30;99.90
18388;DHT22;9320;50.256;19.026;2023-04-07T01:10:21;3.30;99.90
18388;DHT22;9320;50.256;19.026;2023-04-07T01:13:01;3.40;99.90
18388;DHT22;9320;50.256;19.026;2023-04-07T01:15:32;3.50;99.90
18388;DHT22;9320;50.256;19.026;2023-04-07T01:18:08;3.40;99.90
18388;DHT22;9320;50.256;19.026;2023-04-07T01:20:37;3.30;99.90
18388;DHT22;9320;50.256;19.026;2023-04-07T01:23:08;3.30;99.90
18388;DHT22;9320;50.256;19.026;2023-04-07T01:28:55;3.30;99.90
18388;DHT22;9320;50.256;19.026;2023-04-07T01:31:25;3.30;99.90
18388;DHT22;9320;50.256;19.026;2023-04-07T01:33:55;3.30;99.90
18388;DHT22;9320;50.256;19.026;2023-04-07T01:36:26;3.40;99.90
18388;DHT22;9320;50.256;19.026;2023-04-07T01:38:55;3.50;99.90
18388;DHT22;9320;50.256;19.026;2023-04-07T01:41:26;3.50;99.90
18388;DHT22;9320;50.256;19.026;2023-04-07T01:43:55;3.40;99.90
18388;DHT22;9320;50.256;19.026;2023-04-07T01:46:25;3.50;99.90
18388;DHT22;9320;50.256;19.026;2023-04-07T01:48:55;3.50;99.90
18388;DHT22;9320;50.256;19.026;2023-04-07T01:51:24;3.40;99.90
18388;DHT22;9320;50.256;19.026;2023-04-07T01:53:53;3.40;99.90
18388;DHT22;9320;50.256;19.026;2023-04-07T01:56:22;3.50;99.90
18388;DHT22;9320;50.256;19.026;2023-04-07T01:58:50;3.40;99.90
18388;DHT22;9320;50.256;19.026;2023-04-07T02:01:18;3.40;99.90
18388;DHT22;9320;50.256;19.026;2023-04-07T02:03:53;3.50;99.90
18388;DHT22;9320;50.256;19.026;2023-04-07T02:06:27;3.50;99.90
18388;DHT22;9320;50.256;19.026;2023-04-07T02:09:04;3.50;99.90
18388;DHT22;9320;50.256;19.026;2023-04-07T02:11:33;3.40;99.90
18388;DHT22;9320;50.256;19.026;2023-04-07T02:14:04;3.40;99.90
18388;DHT22;9320;50.256;19.026;2023-04-07T02:16:34;3.40;99.90
18388;DHT22;9320;50.256;19.026;2023-04-07T02:19:04;3.50;99.90
18388;DHT22;9320;50.256;19.026;2023-04-07T02:21:33;3.50;99.90
18388;DHT22;9320;50.256;19.026;2023-04-07T02:24:04;3.50;99.90
18388;DHT22;9320;50.256;19.026;2023-04-07T02:26:33;3.50;99.90
18388;DHT22;9320;50.256;19.026;2023-04-07T02:29:02;4.10;99.90
18388;DHT22;9320;50.256;19.026;2023-04-07T02:31:30;3.50;99.90
18388;DHT22;9320;50.256;19.026;2023-04-07T02:33:58;3.60;99.90
18388;DHT22;9320;50.256;19.026;2023-04-07T02:36:27;3.60;99.90
18388;DHT22;9320;50.256;19.026;2023-04-07T02:38:55;3.60;99.90
18388;DHT22;9320;50.256;19.026;2023-04-07T02:41:23;3.50;99.90
18388;DHT22;9320;50.256;19.026;2023-04-07T02:43:51;3.50;99.90
18388;DHT22;9320;50.256;19.026;2023-04-07T02:46:20;3.60;99.90
18388;DHT22;9320;50.256;19.026;2023-04-07T02:48:48;3.60;99.90
18388;DHT22;9320;50.256;19.026;2023-04-07T02:51:17;3.60;99.90
18388;DHT22;9320;50.256;19.026;2023-04-07T02:53:46;3.70;99.90
18388;DHT22;9320;50.256;19.026;2023-04-07T02:56:14;3.60;99.90
18388;DHT22;9320;50.256;19.026;2023-04-07T02:58:43;3.50;99.90
18388;DHT22;9320;50.256;19.026;2023-04-07T03:01:11;3.40;99.90
18388;DHT22;9320;50.256;19.026;2023-04-07T03:03:39;3.50;99.90
18388;DHT22;9320;50.256;19.026;2023-04-07T03:06:08;3.60;99.90
18388;DHT22;9320;50.256;19.026;2023-04-07T03:08:36;3.70;99.90
18388;DHT22;9320;50.256;19.026;2023-04-07T03:11:05;3.60;99.90
18388;DHT22;9320;50.256;19.026;2023-04-07T03:13:33;3.60;99.90
18388;DHT22;9320;50.256;19.026;2023-04-07T03:16:01;3.60;99.90
18388;DHT22;9320;50.256;19.026;2023-04-07T03:18:29;3.50;99.90
18388;DHT22;9320;50.256;19.026;2023-04-07T03:20:57;3.50;99.90
18388;DHT22;9320;50.256;19.026;2023-04-07T03:23:25;3.50;99.90
18388;DHT22;9320;50.256;19.026;2023-04-07T03:25:55;3.40;99.90
18388;DHT22;9320;50.256;19.026;2023-04-07T03:28:25;3.50;99.90
18388;DHT22;9320;50.256;19.026;2023-04-07T03:30:53;3.40;99.90
18388;DHT22;9320;50.256;19.026;2023-04-07T03:33:21;3.50;99.90
18388;DHT22;9320;50.256;19.026;2023-04-07T03:35:49;3.60;99.90
18388;DHT22;9320;50.256;19.026;2023-04-07T03:38:17;3.60;99.90
18388;DHT22;9320;50.256;19.026;2023-04-07T03:40:45;3.50;99.90
18388;DHT22;9320;50.256;19.026;2023-04-07T03:43:13;3.50;99.90
18388;DHT22;9320;50.256;19.026;2023-04-07T03:45:43;3.60;99.90
18388;DHT22;9320;50.256;19.026;2023-04-07T03:48:11;3.60;99.90
18388;DHT22;9320;50.256;19.026;2023-04-07T03:50:39;3.50;99.90
18388;DHT22;9320;50.256;19.026;2023-04-07T03:53:07;3.60;99.90
18388;DHT22;9320;50.256;19.026;2023-04-07T03:55:36;3.50;99.90
18388;DHT22;9320;50.256;19.026;2023-04-07T03:58:04;3.60;99.90
18388;DHT22;9320;50.256;19.026;2023-04-07T04:00:33;3.60;99.90
18388;DHT22;9320;50.256;19.026;2023-04-07T04:03:02;3.10;99.90
18388;DHT22;9320;50.256;19.026;2023-04-07T04:05:31;3.70;99.90
18388;DHT22;9320;50.256;19.026;2023-04-07T04:07:59;3.70;99.90
18388;DHT22;9320;50.256;19.026;2023-04-07T04:10:27;3.70;99.90
18388;DHT22;9320;50.256;19.026;2023-04-07T04:12:55;3.60;99.90
18388;DHT22;9320;50.256;19.026;2023-04-07T04:15:26;3.60;99.90
18388;DHT22;9320;50.256;19.026;2023-04-07T04:17:54;3.60;99.90
18388;DHT22;9320;50.256;19.026;2023-04-07T04:20:23;3.50;99.90
18388;DHT22;9320;50.256;19.026;2023-04-07T04:22:52;3.40;99.90
18388;DHT22;9320;50.256;19.026;2023-04-07T04:25:20;3.40;99.90
18388;DHT22;9320;50.256;19.026;2023-04-07T04:27:48;3.50;99.90
18388;DHT22;9320;50.256;19.026;2023-04-07T04:30:16;3.50;99.90
18388;DHT22;9320;50.256;19.026;2023-04-07T04:32:44;3.50;99.90
18388;DHT22;9320;50.256;19.026;2023-04-07T04:35:12;3.60;99.90
18388;DHT22;9320;50.256;19.026;2023-04-07T04:37:41;3.60;99.90
18388;DHT22;9320;50.256;19.026;2023-04-07T04:40:10;3.60;99.90
18388;DHT22;9320;50.256;19.026;2023-04-07T04:42:39;3.50;99.90
18388;DHT22;9320;50.256;19.026;2023-04-07T04:45:08;3.60;99.90
18388;DHT22;9320;50.256;19.026;2023-04-07T04:47:36;3.60;99.90
18388;DHT22;9320;50.256;19.026;2023-04-07T04:50:06;3.60;99.90
18388;DHT22;9320;50.256;19.026;2023-04-07T04:52:34;3.60;99.90
18388;DHT22;9320;50.256;19.026;2023-04-07T04:55:06;3.80;99.90
18388;DHT22;9320;50.256;19.026;2023-04-07T04:57:34;3.90;99.90
18388;DHT22;9320;50.256;19.026;2023-04-07T05:00:03;3.90;99.90
18388;DHT22;9320;50.256;19.026;2023-04-07T05:02:31;3.80;99.90
18388;DHT22;9320;50.256;19.026;2023-04-07T05:04:59;3.80;99.90
18388;DHT22;9320;50.256;19.026;2023-04-07T05:07:28;3.80;99.90
18388;DHT22;9320;50.256;19.026;2023-04-07T05:09:56;3.70;99.90
18388;DHT22;9320;50.256;19.026;2023-04-07T05:12:26;3.60;99.90
18388;DHT22;9320;50.256;19.026;2023-04-07T05:14:54;3.60;99.90
18388;DHT22;9320;50.256;19.026;2023-04-07T05:17:22;3.50;99.90
18388;DHT22;9320;50.256;19.026;2023-04-07T05:19:50;3.50;99.90
18388;DHT22;9320;50.256;19.026;2023-04-07T05:22:18;3.50;99.90
18388;DHT22;9320;50.256;19.026;2023-04-07T05:24:46;3.50;99.90
18388;DHT22;9320;50.256;19.026;2023-04-07T05:27:14;3.60;99.90
18388;DHT22;9320;50.256;19.026;2023-04-07T05:29:43;3.60;99.90
18388;DHT22;9320;50.256;19.026;2023-04-07T05:32:11;3.70;99.90
18388;DHT22;9320;50.256;19.026;2023-04-07T05:34:39;3.70;99.90
18388;DHT22;9320;50.256;19.026;2023-04-07T05:37:07;4.20;99.90
18388;DHT22;9320;50.256;19.026;2023-04-07T05:39:36;3.90;99.90
18388;DHT22;9320;50.256;19.026;2023-04-07T05:42:04;3.90;99.90
18388;DHT22;9320;50.256;19.026;2023-04-07T05:44:32;3.80;99.90
18388;DHT22;9320;50.256;19.026;2023-04-07T05:47:01;3.80;99.90
18388;DHT22;9320;50.256;19.026;2023-04-07T05:49:31;3.90;99.90
18388;DHT22;9320;50.256;19.026;2023-04-07T05:51:59;3.80;99.90
18388;DHT22;9320;50.256;19.026;2023-04-07T05:54:29;3.70;99.90
18388;DHT22;9320;50.256;19.026;2023-04-07T05:56:57;3.70;99.90
18388;DHT22;9320;50.256;19.026;2023-04-07T05:59:25;3.80;99.90
18388;DHT22;9320;50.256;19.026;2023-04-07T06:01:53;3.70;99.90
18388;DHT22;9320;50.256;19.026;2023-04-07T06:04:22;3.90;99.90
18388;DHT22;9320;50.256;19.026;2023-04-07T06:06:51;4.00;99.90
18388;DHT22;9320;50.256;19.026;2023-04-07T06:09:21;4.00;99.90
18388;DHT22;9320;50.256;19.026;2023-04-07T06:11:49;4.00;99.90
18388;DHT22;9320;50.256;19.026;2023-04-07T06:14:17;4.00;99.90
18388;DHT22;9320;50.256;19.026;2023-04-07T06:16:45;4.00;99.90
18388;DHT22;9320;50.256;19.026;2023-04-07T06:19:14;4.00;99.90
18388;DHT22;9320;50.256;19.026;2023-04-07T06:21:43;4.20;99.90
18388;DHT22;9320;50.256;19.026;2023-04-07T06:24:11;4.20;99.90
18388;DHT22;9320;50.256;19.026;2023-04-07T06:26:39;4.20;99.90
18388;DHT22;9320;50.256;19.026;2023-04-07T06:29:08;4.20;99.90
18388;DHT22;9320;50.256;19.026;2023-04-07T06:31:37;4.30;99.90
18388;DHT22;9320;50.256;19.026;2023-04-07T06:34:05;4.40;99.90
18388;DHT22;9320;50.256;19.026;2023-04-07T06:36:33;4.50;99.90
18388;DHT22;9320;50.256;19.026;2023-04-07T06:39:03;4.60;99.90
18388;DHT22;9320;50.256;19.026;2023-04-07T06:41:31;4.40;99.90
18388;DHT22;9320;50.256;19.026;2023-04-07T06:43:59;4.50;99.90
18388;DHT22;9320;50.256;19.026;2023-04-07T06:46:27;4.50;99.90
18388;DHT22;9320;50.256;19.026;2023-04-07T06:48:55;4.60;99.90
18388;DHT22;9320;50.256;19.026;2023-04-07T06:51:23;4.40;99.90
18388;DHT22;9320;50.256;19.026;2023-04-07T06:53:52;4.30;99.90
18388;DHT22;9320;50.256;19.026;2023-04-07T06:56:22;4.30;99.90
18388;DHT22;9320;50.256;19.026;2023-04-07T06:58:50;4.50;99.90
18388;DHT22;9320;50.256;19.026;2023-04-07T07:01:18;4.40;99.90
18388;DHT22;9320;50.256;19.026;2023-04-07T07:03:47;4.60;99.90
18388;DHT22;9320;50.256;19.026;2023-04-07T07:06:16;4.60;99.90
18388;DHT22;9320;50.256;19.026;2023-04-07T07:08:44;4.60;99.90
18388;DHT22;9320;50.256;19.026;2023-04-07T07:11:12;4.60;99.90
18388;DHT22;9320;50.256;19.026;2023-04-07T07:13:41;4.80;99.90
18388;DHT22;9320;50.256;19.026;2023-04-07T07:16:10;4.80;99.90
18388;DHT22;9320;50.256;19.026;2023-04-07T07:18:39;4.70;99.90
18388;DHT22;9320;50.256;19.026;2023-04-07T07:21:07;4.70;99.90
18388;DHT22;9320;50.256;19.026;2023-04-07T07:23:35;4.70;99.90
18388;DHT22;9320;50.256;19.026;2023-04-07T07:26:03;4.60;99.90
18388;DHT22;9320;50.256;19.026;2023-04-07T07:28:31;4.60;99.90
18388;DHT22;9320;50.256;19.026;2023-04-07T07:31:07;4.50;99.90
18388;DHT22;9320;50.256;19.026;2023-04-07T07:33:36;4.60;99.90
18388;DHT22;9320;50.256;19.026;2023-04-07T07:36:06;4.60;99.90
18388;DHT22;9320;50.256;19.026;2023-04-07T07:38:35;4.60;99.90
18388;DHT22;9320;50.256;19.026;2023-04-07T07:41:03;4.80;99.90
18388;DHT22;9320;50.256;19.026;2023-04-07T07:43:32;4.80;99.90
18388;DHT22;9320;50.256;19.026;2023-04-07T07:46:02;4.80;99.90
18388;DHT22;9320;50.256;19.026;2023-04-07T07:48:30;4.90;99.90
18388;DHT22;9320;50.256;19.026;2023-04-07T07:50:58;5.00;99.90
18388;DHT22;9320;50.256;19.026;2023-04-07T07:53:26;5.10;99.90
18388;DHT22;9320;50.256;19.026;2023-04-07T07:55:54;5.10;99.90
18388;DHT22;9320;50.256;19.026;2023-04-07T07:58:22;5.20;99.90
18388;DHT22;9320;50.256;19.026;2023-04-07T08:00:50;5.10;99.90
18388;DHT22;9320;50.256;19.026;2023-04-07T08:03:20;5.20;99.90
18388;DHT22;9320;50.256;19.026;2023-04-07T08:05:48;5.30;99.90
18388;DHT22;9320;50.256;19.026;2023-04-07T08:08:16;5.40;99.90
18388;DHT22;9320;50.256;19.026;2023-04-07T08:10:44;5.40;99.90
18388;DHT22;9320;50.256;19.026;2023-04-07T08:13:12;5.50;99.90
18388;DHT22;9320;50.256;19.026;2023-04-07T08:15:41;5.60;99.90
18388;DHT22;9320;50.256;19.026;2023-04-07T08:18:09;5.80;99.90
18388;DHT22;9320;50.256;19.026;2023-04-07T08:20:38;5.70;99.90
18388;DHT22;9320;50.256;19.026;2023-04-07T08:23:06;5.60;99.90
18388;DHT22;9320;50.256;19.026;2023-04-07T08:25:34;5.70;99.90
18388;DHT22;9320;50.256;19.026;2023-04-07T08:28:02;5.80;99.90
18388;DHT22;9320;50.256;19.026;2023-04-07T08:30:30;5.70;99.90
18388;DHT22;9320;50.256;19.026;2023-04-07T08:32:58;5.70;99.90
18388;DHT22;9320;50.256;19.026;2023-04-07T08:35:26;5.50;99.90
18388;DHT22;9320;50.256;19.026;2023-04-07T08:37:56;5.30;99.90
18388;DHT22;9320;50.256;19.026;2023-04-07T08:40:24;5.20;99.90
18388;DHT22;9320;50.256;19.026;2023-04-07T08:42:52;5.20;99.90
18388;DHT22;9320;50.256;19.026;2023-04-07T08:45:21;5.40;99.90
18388;DHT22;9320;50.256;19.026;2023-04-07T08:47:51;5.50;99.90
18388;DHT22;9320;50.256;19.026;2023-04-07T08:50:25;5.60;99.90
18388;DHT22;9320;50.256;19.026;2023-04-07T08:52:56;5.50;99.90
18388;DHT22;9320;50.256;19.026;2023-04-07T08:55:24;5.60;99.90
18388;DHT22;9320;50.256;19.026;2023-04-07T08:57:53;5.50;99.90
18388;DHT22;9320;50.256;19.026;2023-04-07T09:00:22;5.40;99.90
18388;DHT22;9320;50.256;19.026;2023-04-07T09:02:50;5.30;99.90
18388;DHT22;9320;50.256;19.026;2023-04-07T09:05:19;5.30;99.90
18388;DHT22;9320;50.256;19.026;2023-04-07T09:07:48;5.40;99.90
18388;DHT22;9320;50.256;19.026;2023-04-07T09:10:17;5.20;99.90
18388;DHT22;9320;50.256;19.026;2023-04-07T09:12:45;5.50;99.90
18388;DHT22;9320;50.256;19.026;2023-04-07T09:15:13;5.40;99.90
18388;DHT22;9320;50.256;19.026;2023-04-07T09:17:42;5.40;99.90
18388;DHT22;9320;50.256;19.026;2023-04-07T09:20:10;5.20;99.90
18388;DHT22;9320;50.256;19.026;2023-04-07T09:22:40;5.30;99.90
18388;DHT22;9320;50.256;19.026;2023-04-07T09:25:14;5.50;99.90
18388;DHT22;9320;50.256;19.026;2023-04-07T09:27:57;5.50;99.90
18388;DHT22;9320;50.256;19.026;2023-04-07T09:30:26;5.30;99.90
18388;DHT22;9320;50.256;19.026;2023-04-07T09:32:55;5.20;99.90
18388;DHT22;9320;50.256;19.026;2023-04-07T09:35:23;5.10;99.90
18388;DHT22;9320;50.256;19.026;2023-04-07T09:38:03;5.00;99.90
18388;DHT22;9320;50.256;19.026;2023-04-07T09:40:32;5.00;99.90
18388;DHT22;9320;50.256;19.026;2023-04-07T09:43:03;5.10;99.90
18388;DHT22;9320;50.256;19.026;2023-04-07T09:45:31;5.20;99.90
18388;DHT22;9320;50.256;19.026;2023-04-07T09:48:06;5.30;99.90
18388;DHT22;9320;50.256;19.026;2023-04-07T09:50:37;5.30;99.90
18388;DHT22;9320;50.256;19.026;2023-04-07T09:53:07;5.40;99.90
18388;DHT22;9320;50.256;19.026;2023-04-07T09:55:36;5.30;99.90
18388;DHT22;9320;50.256;19.026;2023-04-07T09:58:06;5.10;99.90
18388;DHT22;9320;50.256;19.026;2023-04-07T10:00:35;5.20;99.90
18388;DHT22;9320;50.256;19.026;2023-04-07T10:03:03;5.30;99.90
18388;DHT22;9320;50.256;19.026;2023-04-07T10:05:33;5.20;99.90
18388;DHT22;9320;50.256;19.026;2023-04-07T10:08:02;5.30;99.90
18388;DHT22;9320;50.256;19.026;2023-04-07T10:10:30;5.40;99.90
18388;DHT22;9320;50.256;19.026;2023-04-07T10:12:59;5.40;99.90
18388;DHT22;9320;50.256;19.026;2023-04-07T10:15:29;5.50;99.90
18388;DHT22;9320;50.256;19.026;2023-04-07T10:17:57;5.50;99.90
18388;DHT22;9320;50.256;19.026;2023-04-07T10:20:27;5.40;99.90
18388;DHT22;9320;50.256;19.026;2023-04-07T10:23:03;5.50;99.90
18388;DHT22;9320;50.256;19.026;2023-04-07T10:25:33;5.60;99.90
18388;DHT22;9320;50.256;19.026;2023-04-07T10:28:05;5.70;99.90
18388;DHT22;9320;50.256;19.026;2023-04-07T10:30:35;5.80;99.90
18388;DHT22;9320;50.256;19.026;2023-04-07T10:33:03;5.90;99.90
18388;DHT22;9320;50.256;19.026;2023-04-07T10:36:02;5.80;99.90
18388;DHT22;9320;50.256;19.026;2023-04-07T10:38:31;5.70;99.90
18388;DHT22;9320;50.256;19.026;2023-04-07T10:40:59;5.60;99.90
18388;DHT22;9320;50.256;19.026;2023-04-07T10:43:36;5.50;99.90
18388;DHT22;9320;50.256;19.026;2023-04-07T10:46:06;5.40;99.90
18388;DHT22;9320;50.256;19.026;2023-04-07T10:48:35;5.40;99.90
18388;DHT22;9320;50.256;19.026;2023-04-07T10:51:14;5.40;99.90
18388;DHT22;9320;50.256;19.026;2023-04-07T10:54:16;5.20;99.90
18388;DHT22;9320;50.256;19.026;2023-04-07T10:57:06;5.20;99.90
18388;DHT22;9320;50.256;19.026;2023-04-07T10:59:39;5.40;99.90
18388;DHT22;9320;50.256;19.026;2023-04-07T11:02:36;5.40;99.90
18388;DHT22;9320;50.256;19.026;2023-04-07T11:05:05;5.50;99.90
18388;DHT22;9320;50.256;19.026;2023-04-07T11:07:45;5.70;99.90
18388;DHT22;9320;50.256;19.026;2023-04-07T11:10:15;5.70;99.90
18388;DHT22;9320;50.256;19.026;2023-04-07T11:13:01;5.60;99.90
18388;DHT22;9320;50.256;19.026;2023-04-07T11:15:29;6.00;99.90
18388;DHT22;9320;50.256;19.026;2023-04-07T11:18:13;5.70;99.90
18388;DHT22;9320;50.256;19.026;2023-04-07T11:20:44;5.60;99.90
18388;DHT22;9320;50.256;19.026;2023-04-07T11:23:13;5.60;99.90
18388;DHT22;9320;50.256;19.026;2023-04-07T11:25:42;5.60;99.90
18388;DHT22;9320;50.256;19.026;2023-04-07T11:28:11;5.70;99.90
18388;DHT22;9320;50.256;19.026;2023-04-07T11:30:51;6.00;99.90
18388;DHT22;9320;50.256;19.026;2023-04-07T11:33:24;6.10;99.90
18388;DHT22;9320;50.256;19.026;2023-04-07T11:35:54;6.10;99.90
18388;DHT22;9320;50.256;19.026;2023-04-07T11:38:24;6.10;99.90
18388;DHT22;9320;50.256;19.026;2023-04-07T11:40:54;5.70;99.90
18388;DHT22;9320;50.256;19.026;2023-04-07T11:43:23;6.00;99.90
18388;DHT22;9320;50.256;19.026;2023-04-07T11:46:05;6.10;99.90
18388;DHT22;9320;50.256;19.026;2023-04-07T11:48:37;6.10;99.90
18388;DHT22;9320;50.256;19.026;2023-04-07T11:51:14;6.20;99.90
18388;DHT22;9320;50.256;19.026;2023-04-07T11:53:42;6.00;99.90
18388;DHT22;9320;50.256;19.026;2023-04-07T11:56:13;6.00;99.90
18388;DHT22;9320;50.256;19.026;2023-04-07T11:58:47;5.90;99.90
18388;DHT22;9320;50.256;19.026;2023-04-07T12:01:16;5.90;99.90
18388;DHT22;9320;50.256;19.026;2023-04-07T12:03:59;5.90;99.90
18388;DHT22;9320;50.256;19.026;2023-04-07T12:06:29;5.90;99.90
18388;DHT22;9320;50.256;19.026;2023-04-07T12:09:01;5.90;99.90
18388;DHT22;9320;50.256;19.026;2023-04-07T12:11:29;5.90;99.90
18388;DHT22;9320;50.256;19.026;2023-04-07T12:13:57;5.80;99.90
18388;DHT22;9320;50.256;19.026;2023-04-07T12:16:25;5.80;99.90
18388;DHT22;9320;50.256;19.026;2023-04-07T12:18:53;5.80;99.90
18388;DHT22;9320;50.256;19.026;2023-04-07T12:21:22;5.90;99.90
18388;DHT22;9320;50.256;19.026;2023-04-07T12:23:51;5.80;99.90
18388;DHT22;9320;50.256;19.026;2023-04-07T12:26:19;5.80;99.90
18388;DHT22;9320;50.256;19.026;2023-04-07T12:28:49;5.60;99.90
18388;DHT22;9320;50.256;19.026;2023-04-07T12:31:17;5.70;99.90
18388;DHT22;9320;50.256;19.026;2023-04-07T12:33:45;5.60;99.90
18388;DHT22;9320;50.256;19.026;2023-04-07T12:36:13;5.70;99.90
18388;DHT22;9320;50.256;19.026;2023-04-07T12:38:43;5.80;99.90
18388;DHT22;9320;50.256;19.026;2023-04-07T12:41:11;5.80;99.90
18388;DHT22;9320;50.256;19.026;2023-04-07T12:43:39;5.60;99.90
18388;DHT22;9320;50.256;19.026;2023-04-07T12:46:07;5.50;99.90
18388;DHT22;9320;50.256;19.026;2023-04-07T12:48:35;5.50;99.90
18388;DHT22;9320;50.256;19.026;2023-04-07T12:51:03;5.60;99.90
18388;DHT22;9320;50.256;19.026;2023-04-07T12:53:32;5.60;99.90
18388;DHT22;9320;50.256;19.026;2023-04-07T12:56:01;5.70;99.90
18388;DHT22;9320;50.256;19.026;2023-04-07T12:58:29;5.70;99.90
18388;DHT22;9320;50.256;19.026;2023-04-07T13:00:57;5.70;99.90
18388;DHT22;9320;50.256;19.026;2023-04-07T13:03:26;5.60;99.90
18388;DHT22;9320;50.256;19.026;2023-04-07T13:05:55;5.60;99.90
18388;DHT22;9320;50.256;19.026;2023-04-07T13:08:27;5.60;99.90
18388;DHT22;9320;50.256;19.026;2023-04-07T13:10:55;5.70;99.90
18388;DHT22;9320;50.256;19.026;2023-04-07T13:13:24;5.70;99.90
18388;DHT22;9320;50.256;19.026;2023-04-07T13:15:52;5.80;99.90
18388;DHT22;9320;50.256;19.026;2023-04-07T13:18:20;5.80;99.90
18388;DHT22;9320;50.256;19.026;2023-04-07T13:20:48;5.70;99.90
18388;DHT22;9320;50.256;19.026;2023-04-07T13:23:36;5.70;99.90
18388;DHT22;9320;50.256;19.026;2023-04-07T13:26:19;5.70;99.90
18388;DHT22;9320;50.256;19.026;2023-04-07T13:28:49;5.70;99.90
18388;DHT22;9320;50.256;19.026;2023-04-07T13:31:17;5.70;99.90
18388;DHT22;9320;50.256;19.026;2023-04-07T13:33:47;5.80;99.90
18388;DHT22;9320;50.256;19.026;2023-04-07T13:36:16;5.70;99.90
18388;DHT22;9320;50.256;19.026;2023-04-07T13:38:46;5.60;99.90
18388;DHT22;9320;50.256;19.026;2023-04-07T13:41:14;5.50;99.90
18388;DHT22;9320;50.256;19.026;2023-04-07T13:43:42;5.60;99.90
18388;DHT22;9320;50.256;19.026;2023-04-07T13:46:13;5.60;99.90
18388;DHT22;9320;50.256;19.026;2023-04-07T13:48:54;5.60;99.90
18388;DHT22;9320;50.256;19.026;2023-04-07T13:51:22;5.60;99.90
18388;DHT22;9320;50.256;19.026;2023-04-07T13:53:50;5.70;99.90
18388;DHT22;9320;50.256;19.026;2023-04-07T13:56:18;5.70;99.90
18388;DHT22;9320;50.256;19.026;2023-04-07T13:58:47;5.70;99.90
18388;DHT22;9320;50.256;19.026;2023-04-07T14:01:17;5.70;99.90
18388;DHT22;9320;50.256;19.026;2023-04-07T14:03:46;5.70;99.90
18388;DHT22;9320;50.256;19.026;2023-04-07T14:06:15;5.70;99.90
18388;DHT22;9320;50.256;19.026;2023-04-07T14:08:43;5.70;99.90
18388;DHT22;9320;50.256;19.026;2023-04-07T14:11:14;5.70;99.90
18388;DHT22;9320;50.256;19.026;2023-04-07T14:13:42;5.80;99.90
18388;DHT22;9320;50.256;19.026;2023-04-07T14:16:11;5.80;99.90
18388;DHT22;9320;50.256;19.026;2023-04-07T14:18:40;5.90;99.90
18388;DHT22;9320;50.256;19.026;2023-04-07T14:21:08;6.00;99.90
18388;DHT22;9320;50.256;19.026;2023-04-07T14:23:37;6.00;99.90
18388;DHT22;9320;50.256;19.026;2023-04-07T14:26:08;6.00;99.90
18388;DHT22;9320;50.256;19.026;2023-04-07T14:28:36;6.00;99.90
18388;DHT22;9320;50.256;19.026;2023-04-07T14:31:04;6.00;99.90
18388;DHT22;9320;50.256;19.026;2023-04-07T14:33:33;6.00;99.90
18388;DHT22;9320;50.256;19.026;2023-04-07T14:36:02;5.90;99.90
18388;DHT22;9320;50.256;19.026;2023-04-07T14:38:30;5.70;99.90
18388;DHT22;9320;50.256;19.026;2023-04-07T14:41:01;5.70;99.90
18388;DHT22;9320;50.256;19.026;2023-04-07T14:43:32;5.80;99.90
18388;DHT22;9320;50.256;19.026;2023-04-07T14:46:01;5.90;99.90
18388;DHT22;9320;50.256;19.026;2023-04-07T14:48:29;5.90;99.90
18388;DHT22;9320;50.256;19.026;2023-04-07T14:50:58;5.90;99.90
18388;DHT22;9320;50.256;19.026;2023-04-07T14:53:36;5.90;99.90
18388;DHT22;9320;50.256;19.026;2023-04-07T14:56:05;5.90;99.90
18388;DHT22;9320;50.256;19.026;2023-04-07T14:58:33;5.90;99.90
18388;DHT22;9320;50.256;19.026;2023-04-07T15:01:03;6.00;99.90
18388;DHT22;9320;50.256;19.026;2023-04-07T15:03:32;6.10;99.90
18388;DHT22;9320;50.256;19.026;2023-04-07T15:06:04;6.20;99.90
18388;DHT22;9320;50.256;19.026;2023-04-07T15:08:32;6.40;99.90
18388;DHT22;9320;50.256;19.026;2023-04-07T15:11:04;6.40;99.90
18388;DHT22;9320;50.256;19.026;2023-04-07T15:13:32;6.50;99.90
18388;DHT22;9320;50.256;19.026;2023-04-07T15:16:07;6.50;99.90
18388;DHT22;9320;50.256;19.026;2023-04-07T15:18:37;6.60;99.90
18388;DHT22;9320;50.256;19.026;2023-04-07T15:21:06;6.70;99.90
18388;DHT22;9320;50.256;19.026;2023-04-07T15:23:35;6.60;99.90
18388;DHT22;9320;50.256;19.026;2023-04-07T15:26:06;6.70;99.90
18388;DHT22;9320;50.256;19.026;2023-04-07T15:28:34;6.60;99.90
18388;DHT22;9320;50.256;19.026;2023-04-07T15:31:02;6.70;99.90
18388;DHT22;9320;50.256;19.026;2023-04-07T15:33:34;6.70;99.90
18388;DHT22;9320;50.256;19.026;2023-04-07T15:36:03;6.60;99.90
18388;DHT22;9320;50.256;19.026;2023-04-07T15:38:31;6.60;99.90
18388;DHT22;9320;50.256;19.026;2023-04-07T15:40:59;6.60;99.90
18388;DHT22;9320;50.256;19.026;2023-04-07T15:43:28;6.70;99.90
18388;DHT22;9320;50.256;19.026;2023-04-07T15:45:56;6.60;99.90
18388;DHT22;9320;50.256;19.026;2023-04-07T15:48:25;6.60;99.90
18388;DHT22;9320;50.256;19.026;2023-04-07T15:50:53;6.50;99.90
18388;DHT22;9320;50.256;19.026;2023-04-07T15:53:21;6.50;99.90
18388;DHT22;9320;50.256;19.026;2023-04-07T15:55:49;6.50;99.90
18388;DHT22;9320;50.256;19.026;2023-04-07T15:58:17;6.50;99.90
18388;DHT22;9320;50.256;19.026;2023-04-07T16:00:46;6.60;99.90
18388;DHT22;9320;50.256;19.026;2023-04-07T16:03:14;6.50;99.90